sensor_id;sensor_type;location;lat;lon;timestamp;P1;durP1;ratioP1;P2;durP2;ratioP2
34775;SDS011;20989;52.566;13.346;2023-04-24T00:00:43;2.13;;;1.92;;
34775;SDS011;20989;52.566;13.346;2023-04-24T00:03:45;2.22;;;2.03;;
34775;SDS011;20989;52.566;13.346;2023-04-24T00:06:45;3.35;;;2.05;;
34775;SDS011;20989;52.566;13.346;2023-04-24T00:09:49;2.35;;;2.20;;
34775;SDS011;20989;52.566;13.346;2023-04-24T00:12:50;2.13;;;1.92;;
34775;SDS011;20989;52.566;13.346;2023-04-24T00:15:51;1.80;;;1.70;;
34775;SDS011;20989;52.566;13.346;2023-04-24T00:18:52;1.70;;;1.60;;
34775;SDS011;20989;52.566;13.346;2023-04-24T00:21:52;2.05;;;1.85;;
34775;SDS011;20989;52.566;13.346;2023-04-24T00:24:54;1.80;;;1.70;;
34775;SDS011;20989;52.566;13.346;2023-04-24T00:27:54;1.75;;;1.65;;
34775;SDS011;20989;52.566;13.346;2023-04-24T00:30:55;2.20;;;2.00;;
34775;SDS011;20989;52.566;13.346;2023-04-24T00:33:57;2.28;;;2.08;;
34775;SDS011;20989;52.566;13.346;2023-04-24T00:36:58;2.30;;;2.10;;
34775;SDS011;20989;52.566;13.346;2023-04-24T00:39:58;1.88;;;1.77;;
34775;SDS011;20989;52.566;13.346;2023-04-24T00:42:59;1.85;;;1.75;;
34775;SDS011;20989;52.566;13.346;2023-04-24T00:46:00;2.10;;;1.77;;
34775;SDS011;20989;52.566;13.346;2023-04-24T00:49:02;2.28;;;2.08;;
34775;SDS011;20989;52.566;13.346;2023-04-24T00:52:06;1.90;;;1.70;;
34775;SDS011;20989;52.566;13.346;2023-04-24T00:55:09;2.28;;;1.90;;
34775;SDS011;20989;52.566;13.346;2023-04-24T00:58:09;2.20;;;1.95;;
34775;SDS011;20989;52.566;13.346;2023-04-24T01:01:10;2.10;;;1.90;;
34775;SDS011;20989;52.566;13.346;2023-04-24T01:04:12;2.45;;;2.25;;
34775;SDS011;20989;52.566;13.346;2023-04-24T01:07:13;2.10;;;1.90;;
34775;SDS011;20989;52.566;13.346;2023-04-24T01:10:14;2.10;;;2.00;;
34775;SDS011;20989;52.566;13.346;2023-04-24T01:13:15;1.80;;;1.70;;
34775;SDS011;20989;52.566;13.346;2023-04-24T01:16:17;2.17;;;2.08;;
34775;SDS011;20989;52.566;13.346;2023-04-24T01:19:20;2.00;;;1.90;;
34775;SDS011;20989;52.566;13.346;2023-04-24T01:22:21;2.13;;;2.03;;
34775;SDS011;20989;52.566;13.346;2023-04-24T01:25:22;1.90;;;1.80;;
34775;SDS011;20989;52.566;13.346;2023-04-24T01:28:23;2.13;;;2.03;;
34775;SDS011;20989;52.566;13.346;2023-04-24T01:31:24;2.45;;;2.25;;
34775;SDS011;20989;52.566;13.346;2023-04-24T01:34:25;2.15;;;1.95;;
34775;SDS011;20989;52.566;13.346;2023-04-24T01:37:26;1.90;;;1.80;;
34775;SDS011;20989;52.566;13.346;2023-04-24T01:40:27;1.73;;;1.63;;
34775;SDS011;20989;52.566;13.346;2023-04-24T01:43:28;1.70;;;1.60;;
34775;SDS011;20989;52.566;13.346;2023-04-24T01:46:29;1.50;;;1.35;;
34775;SDS011;20989;52.566;13.346;2023-04-24T01:49:31;1.45;;;1.35;;
34775;SDS011;20989;52.566;13.346;2023-04-24T01:52:32;1.77;;;1.67;;
34775;SDS011;20989;52.566;13.346;2023-04-24T01:55:35;2.72;;;1.48;;
34775;SDS011;20989;52.566;13.346;2023-04-24T01:58:35;1.70;;;1.60;;
34775;SDS011;20989;52.566;13.346;2023-04-24T02:01:36;1.67;;;1.55;;
34775;SDS011;20989;52.566;13.346;2023-04-24T02:04:38;1.58;;;1.48;;
34775;SDS011;20989;52.566;13.346;2023-04-24T02:07:39;1.70;;;1.60;;
34775;SDS011;20989;52.566;13.346;2023-04-24T02:10:40;1.70;;;1.60;;
34775;SDS011;20989;52.566;13.346;2023-04-24T02:13:40;2.05;;;1.63;;
34775;SDS011;20989;52.566;13.346;2023-04-24T02:16:41;1.20;;;1.20;;
34775;SDS011;20989;52.566;13.346;2023-04-24T02:19:42;1.85;;;1.75;;
34775;SDS011;20989;52.566;13.346;2023-04-24T02:22:43;1.65;;;1.55;;
34775;SDS011;20989;52.566;13.346;2023-04-24T02:25:43;1.42;;;1.33;;
34775;SDS011;20989;52.566;13.346;2023-04-24T02:28:44;2.45;;;1.85;;
34775;SDS011;20989;52.566;13.346;2023-04-24T02:31:45;1.85;;;1.75;;
34775;SDS011;20989;52.566;13.346;2023-04-24T02:34:45;1.90;;;1.80;;
34775;SDS011;20989;52.566;13.346;2023-04-24T02:37:46;1.80;;;1.70;;
34775;SDS011;20989;52.566;13.346;2023-04-24T02:40:47;1.70;;;1.60;;
34775;SDS011;20989;52.566;13.346;2023-04-24T02:43:47;1.60;;;1.50;;
34775;SDS011;20989;52.566;13.346;2023-04-24T02:46:48;1.80;;;1.70;;
34775;SDS011;20989;52.566;13.346;2023-04-24T02:49:49;1.70;;;1.60;;
34775;SDS011;20989;52.566;13.346;2023-04-24T02:52:50;1.35;;;1.25;;
34775;SDS011;20989;52.566;13.346;2023-04-24T02:55:50;1.75;;;1.65;;
34775;SDS011;20989;52.566;13.346;2023-04-24T02:58:51;1.80;;;1.70;;
34775;SDS011;20989;52.566;13.346;2023-04-24T03:01:52;1.85;;;1.75;;
34775;SDS011;20989;52.566;13.346;2023-04-24T03:04:52;1.83;;;1.73;;
34775;SDS011;20989;52.566;13.346;2023-04-24T03:07:53;1.67;;;1.58;;
34775;SDS011;20989;52.566;13.346;2023-04-24T03:10:54;1.45;;;1.35;;
34775;SDS011;20989;52.566;13.346;2023-04-24T03:13:55;1.83;;;1.73;;
34775;SDS011;20989;52.566;13.346;2023-04-24T03:16:55;1.63;;;1.42;;
34775;SDS011;20989;52.566;13.346;2023-04-24T03:19:56;1.50;;;1.40;;
34775;SDS011;20989;52.566;13.346;2023-04-24T03:22:57;1.88;;;1.77;;
34775;SDS011;20989;52.566;13.346;2023-04-24T03:25:57;1.85;;;1.75;;
34775;SDS011;20989;52.566;13.346;2023-04-24T03:28:58;1.50;;;1.40;;
34775;SDS011;20989;52.566;13.346;2023-04-24T03:31:59;1.92;;;1.83;;
34775;SDS011;20989;52.566;13.346;2023-04-24T03:34:59;1.80;;;1.70;;
34775;SDS011;20989;52.566;13.346;2023-04-24T03:38:00;1.45;;;1.35;;
34775;SDS011;20989;52.566;13.346;2023-04-24T03:41:01;1.75;;;1.65;;
34775;SDS011;20989;52.566;13.346;2023-04-24T03:44:02;1.63;;;1.52;;
34775;SDS011;20989;52.566;13.346;2023-04-24T03:47:03;1.27;;;1.23;;
34775;SDS011;20989;52.566;13.346;2023-04-24T03:50:04;1.42;;;1.33;;
34775;SDS011;20989;52.566;13.346;2023-04-24T03:53:05;1.88;;;1.77;;
34775;SDS011;20989;52.566;13.346;2023-04-24T03:56:06;1.77;;;1.67;;
34775;SDS011;20989;52.566;13.346;2023-04-24T04:03:03;1.83;;;1.73;;
34775;SDS011;20989;52.566;13.346;2023-04-24T04:06:04;1.70;;;1.60;;
34775;SDS011;20989;52.566;13.346;2023-04-24T04:09:05;1.45;;;1.38;;
34775;SDS011;20989;52.566;13.346;2023-04-24T04:12:07;1.80;;;1.70;;
34775;SDS011;20989;52.566;13.346;2023-04-24T04:15:07;1.63;;;1.52;;
34775;SDS011;20989;52.566;13.346;2023-04-24T04:18:08;1.60;;;1.50;;
34775;SDS011;20989;52.566;13.346;2023-04-24T04:21:09;1.77;;;1.67;;
34775;SDS011;20989;52.566;13.346;2023-04-24T04:24:10;1.52;;;1.42;;
34775;SDS011;20989;52.566;13.346;2023-04-24T04:27:11;1.50;;;1.40;;
34775;SDS011;20989;52.566;13.346;2023-04-24T04:30:12;1.80;;;1.50;;
34775;SDS011;20989;52.566;13.346;2023-04-24T04:33:13;1.70;;;1.60;;
34775;SDS011;20989;52.566;13.346;2023-04-24T04:36:14;1.40;;;1.30;;
34775;SDS011;20989;52.566;13.346;2023-04-24T04:39:18;1.33;;;1.23;;
34775;SDS011;20989;52.566;13.346;2023-04-24T04:42:19;1.50;;;1.40;;
34775;SDS011;20989;52.566;13.346;2023-04-24T04:45:20;5.70;;;1.67;;
34775;SDS011;20989;52.566;13.346;2023-04-24T04:48:21;1.80;;;1.23;;
34775;SDS011;20989;52.566;13.346;2023-04-24T04:51:22;2.85;;;1.92;;
34775;SDS011;20989;52.566;13.346;2023-04-24T04:54:22;5.10;;;1.50;;
34775;SDS011;20989;52.566;13.346;2023-04-24T04:57:23;3.20;;;1.40;;
34775;SDS011;20989;52.566;13.346;2023-04-24T05:00:24;1.80;;;1.65;;
34775;SDS011;20989;52.566;13.346;2023-04-24T05:03:25;1.45;;;1.35;;
34775;SDS011;20989;52.566;13.346;2023-04-24T05:06:26;1.50;;;1.40;;
34775;SDS011;20989;52.566;13.346;2023-04-24T05:09:27;2.33;;;1.40;;
34775;SDS011;20989;52.566;13.346;2023-04-24T05:12:29;1.63;;;1.52;;
34775;SDS011;20989;52.566;13.346;2023-04-24T05:15:30;1.60;;;1.48;;
34775;SDS011;20989;52.566;13.346;2023-04-24T05:18:30;1.95;;;1.23;;
34775;SDS011;20989;52.566;13.346;2023-04-24T05:21:31;2.08;;;1.55;;
34775;SDS011;20989;52.566;13.346;2023-04-24T05:24:32;1.60;;;1.50;;
34775;SDS011;20989;52.566;13.346;2023-04-24T05:27:35;1.73;;;1.60;;
34775;SDS011;20989;52.566;13.346;2023-04-24T05:30:35;14.68;;;6.18;;
34775;SDS011;20989;52.566;13.346;2023-04-24T05:33:36;7.82;;;3.78;;
34775;SDS011;20989;52.566;13.346;2023-04-24T05:36:37;6.25;;;3.97;;
34775;SDS011;20989;52.566;13.346;2023-04-24T05:39:38;10.60;;;3.63;;
34775;SDS011;20989;52.566;13.346;2023-04-24T05:42:39;7.90;;;3.80;;
34775;SDS011;20989;52.566;13.346;2023-04-24T05:45:40;9.18;;;4.40;;
34775;SDS011;20989;52.566;13.346;2023-04-24T05:48:40;7.55;;;3.90;;
34775;SDS011;20989;52.566;13.346;2023-04-24T05:51:41;7.93;;;3.53;;
34775;SDS011;20989;52.566;13.346;2023-04-24T05:54:42;9.75;;;3.25;;
34775;SDS011;20989;52.566;13.346;2023-04-24T05:57:43;5.28;;;3.25;;
34775;SDS011;20989;52.566;13.346;2023-04-24T06:00:43;5.13;;;3.00;;
34775;SDS011;20989;52.566;13.346;2023-04-24T06:03:46;4.88;;;3.00;;
34775;SDS011;20989;52.566;13.346;2023-04-24T06:06:47;8.95;;;3.17;;
34775;SDS011;20989;52.566;13.346;2023-04-24T06:09:50;9.30;;;2.83;;
34775;SDS011;20989;52.566;13.346;2023-04-24T06:12:51;11.93;;;3.28;;
34775;SDS011;20989;52.566;13.346;2023-04-24T06:15:52;8.02;;;3.38;;
34775;SDS011;20989;52.566;13.346;2023-04-24T06:18:53;7.38;;;3.28;;
34775;SDS011;20989;52.566;13.346;2023-04-24T06:21:53;5.03;;;3.03;;
34775;SDS011;20989;52.566;13.346;2023-04-24T06:24:54;4.85;;;3.05;;
34775;SDS011;20989;52.566;13.346;2023-04-24T06:27:55;3.78;;;2.50;;
34775;SDS011;20989;52.566;13.346;2023-04-24T06:30:56;6.90;;;2.40;;
34775;SDS011;20989;52.566;13.346;2023-04-24T06:33:57;5.07;;;2.53;;
34775;SDS011;20989;52.566;13.346;2023-04-24T06:36:58;3.35;;;2.75;;
34775;SDS011;20989;52.566;13.346;2023-04-24T06:39:58;3.55;;;2.80;;
34775;SDS011;20989;52.566;13.346;2023-04-24T06:42:59;3.30;;;2.72;;
34775;SDS011;20989;52.566;13.346;2023-04-24T06:46:02;3.65;;;2.60;;
34775;SDS011;20989;52.566;13.346;2023-04-24T06:49:03;3.75;;;2.42;;
34775;SDS011;20989;52.566;13.346;2023-04-24T06:52:04;3.20;;;2.40;;
34775;SDS011;20989;52.566;13.346;2023-04-24T06:55:05;3.05;;;2.55;;
34775;SDS011;20989;52.566;13.346;2023-04-24T06:58:06;4.10;;;2.40;;
34775;SDS011;20989;52.566;13.346;2023-04-24T07:01:07;2.92;;;2.65;;
34775;SDS011;20989;52.566;13.346;2023-04-24T07:04:07;3.53;;;2.28;;
34775;SDS011;20989;52.566;13.346;2023-04-24T07:07:08;2.58;;;2.00;;
34775;SDS011;20989;52.566;13.346;2023-04-24T07:10:13;2.45;;;2.17;;
34775;SDS011;20989;52.566;13.346;2023-04-24T07:13:14;3.40;;;1.95;;
34775;SDS011;20989;52.566;13.346;2023-04-24T07:16:15;4.30;;;2.67;;
34775;SDS011;20989;52.566;13.346;2023-04-24T07:19:16;3.38;;;2.40;;
34775;SDS011;20989;52.566;13.346;2023-04-24T07:22:17;2.72;;;2.10;;
34775;SDS011;20989;52.566;13.346;2023-04-24T07:25:17;3.05;;;2.38;;
34775;SDS011;20989;52.566;13.346;2023-04-24T07:28:18;2.55;;;2.17;;
34775;SDS011;20989;52.566;13.346;2023-04-24T07:31:19;3.03;;;2.05;;
34775;SDS011;20989;52.566;13.346;2023-04-24T07:34:19;2.00;;;1.88;;
34775;SDS011;20989;52.566;13.346;2023-04-24T07:37:20;3.35;;;1.88;;
34775;SDS011;20989;52.566;13.346;2023-04-24T07:40:21;1.80;;;1.70;;
34775;SDS011;20989;52.566;13.346;2023-04-24T07:43:22;3.35;;;2.38;;
34775;SDS011;20989;52.566;13.346;2023-04-24T07:46:23;3.30;;;2.15;;
34775;SDS011;20989;52.566;13.346;2023-04-24T07:49:24;2.67;;;2.03;;
34775;SDS011;20989;52.566;13.346;2023-04-24T07:52:25;2.65;;;1.83;;
34775;SDS011;20989;52.566;13.346;2023-04-24T07:55:26;4.45;;;2.15;;
34775;SDS011;20989;52.566;13.346;2023-04-24T07:58:26;2.22;;;1.88;;
34775;SDS011;20989;52.566;13.346;2023-04-24T08:01:27;1.92;;;1.67;;
34775;SDS011;20989;52.566;13.346;2023-04-24T08:04:28;2.30;;;2.00;;
34775;SDS011;20989;52.566;13.346;2023-04-24T08:07:29;1.85;;;1.63;;
34775;SDS011;20989;52.566;13.346;2023-04-24T08:10:29;3.20;;;2.20;;
34775;SDS011;20989;52.566;13.346;2023-04-24T08:13:30;2.35;;;2.05;;
34775;SDS011;20989;52.566;13.346;2023-04-24T08:16:32;1.77;;;1.67;;
34775;SDS011;20989;52.566;13.346;2023-04-24T08:19:33;2.00;;;1.90;;
34775;SDS011;20989;52.566;13.346;2023-04-24T08:22:34;1.92;;;1.73;;
34775;SDS011;20989;52.566;13.346;2023-04-24T08:25:34;2.30;;;1.75;;
34775;SDS011;20989;52.566;13.346;2023-04-24T08:28:35;1.75;;;1.63;;
34775;SDS011;20989;52.566;13.346;2023-04-24T08:31:36;2.22;;;2.03;;
34775;SDS011;20989;52.566;13.346;2023-04-24T08:34:37;2.65;;;1.75;;
34775;SDS011;20989;52.566;13.346;2023-04-24T08:37:38;2.20;;;1.73;;
34775;SDS011;20989;52.566;13.346;2023-04-24T08:40:38;3.08;;;2.00;;
34775;SDS011;20989;52.566;13.346;2023-04-24T08:43:39;1.85;;;1.75;;
34775;SDS011;20989;52.566;13.346;2023-04-24T08:46:42;5.05;;;1.80;;
34775;SDS011;20989;52.566;13.346;2023-04-24T08:49:46;7.15;;;1.92;;
34775;SDS011;20989;52.566;13.346;2023-04-24T08:52:52;3.45;;;1.60;;
34775;SDS011;20989;52.566;13.346;2023-04-24T08:55:54;4.50;;;1.80;;
34775;SDS011;20989;52.566;13.346;2023-04-24T08:58:55;2.58;;;2.00;;
34775;SDS011;20989;52.566;13.346;2023-04-24T09:01:57;4.22;;;1.85;;
34775;SDS011;20989;52.566;13.346;2023-04-24T09:04:58;1.52;;;1.20;;
34775;SDS011;20989;52.566;13.346;2023-04-24T09:07:59;4.88;;;1.60;;
34775;SDS011;20989;52.566;13.346;2023-04-24T09:11:02;1.48;;;1.20;;
34775;SDS011;20989;52.566;13.346;2023-04-24T09:14:03;2.70;;;1.80;;
34775;SDS011;20989;52.566;13.346;2023-04-24T09:17:05;1.67;;;1.58;;
34775;SDS011;20989;52.566;13.346;2023-04-24T09:20:06;3.47;;;1.45;;
34775;SDS011;20989;52.566;13.346;2023-04-24T09:23:07;1.90;;;1.50;;
34775;SDS011;20989;52.566;13.346;2023-04-24T09:26:13;1.45;;;1.35;;
34775;SDS011;20989;52.566;13.346;2023-04-24T09:29:15;1.42;;;1.33;;
34775;SDS011;20989;52.566;13.346;2023-04-24T09:32:20;1.55;;;1.45;;
34775;SDS011;20989;52.566;13.346;2023-04-24T09:35:23;1.67;;;1.45;;
34775;SDS011;20989;52.566;13.346;2023-04-24T09:38:36;2.40;;;1.40;;
34775;SDS011;20989;52.566;13.346;2023-04-24T09:41:48;1.92;;;1.63;;
34775;SDS011;20989;52.566;13.346;2023-04-24T09:44:50;1.40;;;1.30;;
34775;SDS011;20989;52.566;13.346;2023-04-24T09:47:52;1.52;;;1.42;;
34775;SDS011;20989;52.566;13.346;2023-04-24T09:50:54;1.60;;;1.50;;
34775;SDS011;20989;52.566;13.346;2023-04-24T09:53:54;1.50;;;1.40;;
34775;SDS011;20989;52.566;13.346;2023-04-24T09:56:55;1.45;;;1.35;;
34775;SDS011;20989;52.566;13.346;2023-04-24T09:59:56;2.42;;;1.17;;
34775;SDS011;20989;52.566;13.346;2023-04-24T10:02:58;2.83;;;1.58;;
34775;SDS011;20989;52.566;13.346;2023-04-24T10:06:11;1.17;;;1.10;;
34775;SDS011;20989;52.566;13.346;2023-04-24T10:09:12;1.55;;;1.45;;
34775;SDS011;20989;52.566;13.346;2023-04-24T10:12:14;1.17;;;1.08;;
34775;SDS011;20989;52.566;13.346;2023-04-24T10:15:15;1.35;;;1.25;;
34775;SDS011;20989;52.566;13.346;2023-04-24T10:18:20;1.60;;;1.50;;
34775;SDS011;20989;52.566;13.346;2023-04-24T10:21:21;1.75;;;1.13;;
34775;SDS011;20989;52.566;13.346;2023-04-24T10:24:23;1.35;;;1.30;;
34775;SDS011;20989;52.566;13.346;2023-04-24T10:27:23;1.38;;;1.27;;
34775;SDS011;20989;52.566;13.346;2023-04-24T10:30:30;1.50;;;1.40;;
34775;SDS011;20989;52.566;13.346;2023-04-24T10:33:35;1.63;;;1.30;;
34775;SDS011;20989;52.566;13.346;2023-04-24T10:36:36;1.20;;;1.10;;
34775;SDS011;20989;52.566;13.346;2023-04-24T10:40:07;1.48;;;1.38;;
34775;SDS011;20989;52.566;13.346;2023-04-24T10:43:09;1.35;;;1.25;;
34775;SDS011;20989;52.566;13.346;2023-04-24T10:46:16;1.65;;;1.17;;
34775;SDS011;20989;52.566;13.346;2023-04-24T10:49:27;1.00;;;0.88;;
34775;SDS011;20989;52.566;13.346;2023-04-24T10:52:45;1.17;;;1.10;;
34775;SDS011;20989;52.566;13.346;2023-04-24T10:55:50;1.40;;;1.30;;
34775;SDS011;20989;52.566;13.346;2023-04-24T10:58:52;1.00;;;1.00;;
34775;SDS011;20989;52.566;13.346;2023-04-24T11:01:54;1.30;;;1.20;;
34775;SDS011;20989;52.566;13.346;2023-04-24T11:04:55;1.27;;;1.17;;
34775;SDS011;20989;52.566;13.346;2023-04-24T11:08:15;13.93;;;1.20;;
34775;SDS011;20989;52.566;13.346;2023-04-24T11:11:21;3.42;;;1.27;;
34775;SDS011;20989;52.566;13.346;2023-04-24T11:14:28;1.58;;;1.08;;
34775;SDS011;20989;52.566;13.346;2023-04-24T11:20:44;6.75;;;1.08;;
34775;SDS011;20989;52.566;13.346;2023-04-24T11:23:45;1.50;;;0.85;;
34775;SDS011;20989;52.566;13.346;2023-04-24T11:26:46;1.23;;;1.02;;
34775;SDS011;20989;52.566;13.346;2023-04-24T11:32:57;1.05;;;0.98;;
34775;SDS011;20989;52.566;13.346;2023-04-24T11:36:03;5.35;;;1.27;;
34775;SDS011;20989;52.566;13.346;2023-04-24T11:39:04;1.10;;;0.85;;
34775;SDS011;20989;52.566;13.346;2023-04-24T11:42:05;2.17;;;1.00;;
34775;SDS011;20989;52.566;13.346;2023-04-24T11:45:10;3.03;;;1.15;;
34775;SDS011;20989;52.566;13.346;2023-04-24T11:48:20;4.47;;;1.10;;
34775;SDS011;20989;52.566;13.346;2023-04-24T11:51:22;3.80;;;1.45;;
34775;SDS011;20989;52.566;13.346;2023-04-24T11:54:23;0.82;;;0.82;;
34775;SDS011;20989;52.566;13.346;2023-04-24T11:57:25;3.35;;;1.40;;
34775;SDS011;20989;52.566;13.346;2023-04-24T12:00:33;1.10;;;1.10;;
34775;SDS011;20989;52.566;13.346;2023-04-24T12:03:34;1.08;;;1.05;;
34775;SDS011;20989;52.566;13.346;2023-04-24T12:06:35;4.43;;;1.50;;
34775;SDS011;20989;52.566;13.346;2023-04-24T12:09:43;1.45;;;1.02;;
34775;SDS011;20989;52.566;13.346;2023-04-24T12:12:48;3.55;;;2.35;;
34775;SDS011;20989;52.566;13.346;2023-04-24T12:15:51;4.90;;;2.25;;
34775;SDS011;20989;52.566;13.346;2023-04-24T12:18:52;2.35;;;1.75;;
34775;SDS011;20989;52.566;13.346;2023-04-24T12:21:59;5.57;;;2.17;;
34775;SDS011;20989;52.566;13.346;2023-04-24T12:25:02;14.27;;;5.88;;
34775;SDS011;20989;52.566;13.346;2023-04-24T12:31:06;13.02;;;3.60;;
34775;SDS011;20989;52.566;13.346;2023-04-24T12:34:20;6.65;;;3.67;;
34775;SDS011;20989;52.566;13.346;2023-04-24T12:37:25;12.98;;;4.13;;
34775;SDS011;20989;52.566;13.346;2023-04-24T12:40:32;16.35;;;6.32;;
34775;SDS011;20989;52.566;13.346;2023-04-24T12:43:33;8.65;;;3.92;;
34775;SDS011;20989;52.566;13.346;2023-04-24T12:46:34;12.52;;;4.45;;
34775;SDS011;20989;52.566;13.346;2023-04-24T12:49:35;9.05;;;4.72;;
34775;SDS011;20989;52.566;13.346;2023-04-24T12:52:36;16.38;;;6.88;;
34775;SDS011;20989;52.566;13.346;2023-04-24T12:55:37;10.63;;;5.10;;
34775;SDS011;20989;52.566;13.346;2023-04-24T12:58:38;7.05;;;4.50;;
34775;SDS011;20989;52.566;13.346;2023-04-24T13:01:39;21.33;;;8.73;;
34775;SDS011;20989;52.566;13.346;2023-04-24T13:04:40;21.88;;;10.20;;
34775;SDS011;20989;52.566;13.346;2023-04-24T13:07:41;18.50;;;8.40;;
34775;SDS011;20989;52.566;13.346;2023-04-24T13:10:41;15.95;;;7.75;;
34775;SDS011;20989;52.566;13.346;2023-04-24T13:13:42;16.15;;;7.30;;
34775;SDS011;20989;52.566;13.346;2023-04-24T13:16:43;15.35;;;6.60;;
34775;SDS011;20989;52.566;13.346;2023-04-24T13:19:44;12.13;;;5.88;;
34775;SDS011;20989;52.566;13.346;2023-04-24T13:22:45;11.73;;;5.68;;
34775;SDS011;20989;52.566;13.346;2023-04-24T13:25:46;14.27;;;6.38;;
34775;SDS011;20989;52.566;13.346;2023-04-24T13:28:47;12.07;;;6.45;;
34775;SDS011;20989;52.566;13.346;2023-04-24T13:31:52;8.90;;;5.05;;
34775;SDS011;20989;52.566;13.346;2023-04-24T13:34:55;10.93;;;5.65;;
34775;SDS011;20989;52.566;13.346;2023-04-24T13:37:57;11.40;;;5.40;;
34775;SDS011;20989;52.566;13.346;2023-04-24T13:40:58;8.60;;;5.18;;
34775;SDS011;20989;52.566;13.346;2023-04-24T13:43:58;10.82;;;5.15;;
34775;SDS011;20989;52.566;13.346;2023-04-24T13:46:59;9.60;;;5.07;;
34775;SDS011;20989;52.566;13.346;2023-04-24T13:50:00;10.90;;;4.57;;
34775;SDS011;20989;52.566;13.346;2023-04-24T13:53:01;5.53;;;3.70;;
34775;SDS011;20989;52.566;13.346;2023-04-24T13:56:02;10.98;;;5.05;;
34775;SDS011;20989;52.566;13.346;2023-04-24T13:59:03;14.00;;;4.32;;
34775;SDS011;20989;52.566;13.346;2023-04-24T14:02:04;9.13;;;4.28;;
34775;SDS011;20989;52.566;13.346;2023-04-24T14:05:05;5.90;;;3.83;;
34775;SDS011;20989;52.566;13.346;2023-04-24T14:08:06;13.43;;;4.60;;
34775;SDS011;20989;52.566;13.346;2023-04-24T14:11:07;10.30;;;4.43;;
34775;SDS011;20989;52.566;13.346;2023-04-24T14:14:07;7.22;;;3.80;;
34775;SDS011;20989;52.566;13.346;2023-04-24T14:17:08;8.77;;;4.50;;
34775;SDS011;20989;52.566;13.346;2023-04-24T14:20:09;6.38;;;3.38;;
34775;SDS011;20989;52.566;13.346;2023-04-24T14:23:10;9.88;;;4.35;;
34775;SDS011;20989;52.566;13.346;2023-04-24T14:26:11;9.23;;;4.07;;
34775;SDS011;20989;52.566;13.346;2023-04-24T14:29:12;6.57;;;2.83;;
34775;SDS011;20989;52.566;13.346;2023-04-24T14:32:12;6.40;;;3.33;;
34775;SDS011;20989;52.566;13.346;2023-04-24T14:35:15;7.57;;;3.55;;
34775;SDS011;20989;52.566;13.346;2023-04-24T14:38:15;6.10;;;4.05;;
34775;SDS011;20989;52.566;13.346;2023-04-24T14:41:16;4.72;;;2.80;;
34775;SDS011;20989;52.566;13.346;2023-04-24T14:44:17;7.55;;;3.75;;
34775;SDS011;20989;52.566;13.346;2023-04-24T14:47:18;7.85;;;3.25;;
34775;SDS011;20989;52.566;13.346;2023-04-24T14:50:21;13.00;;;4.15;;
34775;SDS011;20989;52.566;13.346;2023-04-24T14:53:31;10.45;;;3.40;;
34775;SDS011;20989;52.566;13.346;2023-04-24T14:56:37;5.88;;;2.58;;
34775;SDS011;20989;52.566;13.346;2023-04-24T14:59:41;7.88;;;3.13;;
34775;SDS011;20989;52.566;13.346;2023-04-24T15:02:55;6.38;;;2.88;;
34775;SDS011;20989;52.566;13.346;2023-04-24T15:06:03;3.42;;;2.67;;
34775;SDS011;20989;52.566;13.346;2023-04-24T15:09:49;5.07;;;2.90;;
34775;SDS011;20989;52.566;13.346;2023-04-24T15:12:55;8.05;;;2.67;;
34775;SDS011;20989;52.566;13.346;2023-04-24T15:15:56;7.95;;;2.47;;
34775;SDS011;20989;52.566;13.346;2023-04-24T15:18:57;4.82;;;2.75;;
34775;SDS011;20989;52.566;13.346;2023-04-24T15:21:57;3.67;;;2.13;;
34775;SDS011;20989;52.566;13.346;2023-04-24T15:24:58;5.72;;;2.72;;
34775;SDS011;20989;52.566;13.346;2023-04-24T15:27:59;10.73;;;2.40;;
34775;SDS011;20989;52.566;13.346;2023-04-24T15:31:01;3.60;;;2.80;;
34775;SDS011;20989;52.566;13.346;2023-04-24T15:34:02;3.47;;;1.95;;
34775;SDS011;20989;52.566;13.346;2023-04-24T15:37:03;2.53;;;1.98;;
34775;SDS011;20989;52.566;13.346;2023-04-24T15:40:04;4.50;;;2.30;;
34775;SDS011;20989;52.566;13.346;2023-04-24T15:43:07;3.20;;;2.05;;
34775;SDS011;20989;52.566;13.346;2023-04-24T15:46:07;2.17;;;1.88;;
34775;SDS011;20989;52.566;13.346;2023-04-24T15:49:09;2.55;;;1.75;;
34775;SDS011;20989;52.566;13.346;2023-04-24T15:52:10;3.22;;;1.85;;
34775;SDS011;20989;52.566;13.346;2023-04-24T15:55:11;6.13;;;1.90;;
34775;SDS011;20989;52.566;13.346;2023-04-24T15:58:12;4.47;;;2.10;;
34775;SDS011;20989;52.566;13.346;2023-04-24T16:01:13;4.30;;;1.85;;
34775;SDS011;20989;52.566;13.346;2023-04-24T16:04:14;2.42;;;2.10;;
34775;SDS011;20989;52.566;13.346;2023-04-24T16:07:15;2.08;;;1.75;;
34775;SDS011;20989;52.566;13.346;2023-04-24T16:10:19;6.38;;;2.78;;
34775;SDS011;20989;52.566;13.346;2023-04-24T16:13:20;2.47;;;1.65;;
34775;SDS011;20989;52.566;13.346;2023-04-24T16:16:21;4.30;;;1.92;;
34775;SDS011;20989;52.566;13.346;2023-04-24T16:19:24;1.75;;;1.65;;
34775;SDS011;20989;52.566;13.346;2023-04-24T16:22:25;4.72;;;1.98;;
34775;SDS011;20989;52.566;13.346;2023-04-24T16:25:26;11.32;;;1.98;;
34775;SDS011;20989;52.566;13.346;2023-04-24T16:28:27;2.65;;;1.73;;
34775;SDS011;20989;52.566;13.346;2023-04-24T16:31:29;3.78;;;1.60;;
34775;SDS011;20989;52.566;13.346;2023-04-24T16:34:30;1.30;;;1.20;;
34775;SDS011;20989;52.566;13.346;2023-04-24T16:37:31;1.73;;;1.63;;
34775;SDS011;20989;52.566;13.346;2023-04-24T16:40:31;1.50;;;1.25;;
34775;SDS011;20989;52.566;13.346;2023-04-24T16:43:32;2.42;;;1.60;;
34775;SDS011;20989;52.566;13.346;2023-04-24T16:46:33;23.55;;;2.50;;
34775;SDS011;20989;52.566;13.346;2023-04-24T16:49:34;23.30;;;2.95;;
34775;SDS011;20989;52.566;13.346;2023-04-24T16:52:35;31.10;;;3.60;;
34775;SDS011;20989;52.566;13.346;2023-04-24T16:55:37;33.35;;;3.83;;
34775;SDS011;20989;52.566;13.346;2023-04-24T16:58:38;28.20;;;2.10;;
34775;SDS011;20989;52.566;13.346;2023-04-24T17:01:39;25.60;;;2.83;;
34775;SDS011;20989;52.566;13.346;2023-04-24T17:04:39;16.20;;;2.00;;
34775;SDS011;20989;52.566;13.346;2023-04-24T17:07:40;16.08;;;2.65;;
34775;SDS011;20989;52.566;13.346;2023-04-24T17:10:41;16.08;;;2.15;;
34775;SDS011;20989;52.566;13.346;2023-04-24T17:13:42;23.13;;;3.72;;
34775;SDS011;20989;52.566;13.346;2023-04-24T17:16:43;12.55;;;2.35;;
34775;SDS011;20989;52.566;13.346;2023-04-24T17:19:45;10.90;;;2.03;;
34775;SDS011;20989;52.566;13.346;2023-04-24T17:22:45;20.15;;;3.20;;
34775;SDS011;20989;52.566;13.346;2023-04-24T17:25:47;14.77;;;2.72;;
34775;SDS011;20989;52.566;13.346;2023-04-24T17:28:48;11.38;;;2.22;;
34775;SDS011;20989;52.566;13.346;2023-04-24T17:31:49;22.73;;;2.90;;
34775;SDS011;20989;52.566;13.346;2023-04-24T17:34:51;18.20;;;2.15;;
34775;SDS011;20989;52.566;13.346;2023-04-24T17:37:51;27.63;;;3.28;;
34775;SDS011;20989;52.566;13.346;2023-04-24T17:40:52;34.22;;;4.18;;
34775;SDS011;20989;52.566;13.346;2023-04-24T17:43:53;29.63;;;4.15;;
34775;SDS011;20989;52.566;13.346;2023-04-24T17:46:54;8.85;;;3.20;;
34775;SDS011;20989;52.566;13.346;2023-04-24T17:49:55;27.67;;;3.15;;
34775;SDS011;20989;52.566;13.346;2023-04-24T17:52:56;27.60;;;2.58;;
34775;SDS011;20989;52.566;13.346;2023-04-24T17:55:56;24.73;;;2.63;;
34775;SDS011;20989;52.566;13.346;2023-04-24T17:59:01;25.27;;;2.63;;
34775;SDS011;20989;52.566;13.346;2023-04-24T18:02:01;12.10;;;2.15;;
34775;SDS011;20989;52.566;13.346;2023-04-24T18:05:02;13.98;;;3.20;;
34775;SDS011;20989;52.566;13.346;2023-04-24T18:08:03;19.40;;;2.50;;
34775;SDS011;20989;52.566;13.346;2023-04-24T18:11:05;12.80;;;2.03;;